LFMP/PGF METAR and TAF weather

Enter ICAO airport designator
Station Type Date Time Source
LFMP METAR 2019/04/24 15:30 UTC NOAA

LFMP 241530Z AUTO 20021G34KT 9999 NCD 21/03 Q1004 NOSIG


Station Type Date Time Source
LFMP Decoded METAR 2019/04/24 15:30 UTC NOAA

Perpignan, France (LFMP) 42-44N 002-52E 48M
Apr 24, 2019 - 11:30 AM EDT / 2019.04.24 1530 UTC
Wind: from the SSW (200 degrees) at 24 MPH (21 KT) gusting to 39 MPH (34 KT):0
Visibility: greater than 7 mile(s):0
Temperature: 69 F (21 C)
Dew Point: 37 F (3 C)
Relative Humidity: 30%
Pressure (altimeter): 29.65 in. Hg (1004 hPa)
ob: LFMP 241530Z AUTO 20021G34KT 9999 NCD 21/03 Q1004 NOSIG
cycle: 15

Station Type Date Time Source
LFMP TAF 2019/04/24 15:21 UTC NOAA

TAF TAF LFMP 241400Z 2415/2515 20018KT CAVOK
TEMPO 2415/2420 20020G30KT
TEMPO 2420/2515 16025G40KT

Example: see airport list